Time;durP1;ratioP1;P1;durP2;ratioP2;P2;SDS_P1;SDS_P2;PMS_P1;PMS_P2;Temp;Humidity;BMP_temperature;BMP_pressure;BME280_temperature;BME280_humidity;BME280_pressure;Samples;Min_cycle;Max_cycle;Signal;HPM_P1;HPM_P2
2021/08/03 00:00:14;;;;;;;9.82;7.00;;;13.80;99.90;;;;;;5010969;28;20061;-73
2021/08/03 00:02:45;;;;;;;10.30;6.70;;;13.70;99.90;;;;;;5011226;28;20054;-73
2021/08/03 00:05:19;;;;;;;9.02;7.10;;;13.70;99.90;;;;;;5010532;28;20022;-73
2021/08/03 00:07:47;;;;;;;8.18;6.50;;;13.80;99.90;;;;;;4993849;28;20030;-73
2021/08/03 00:10:17;;;;;;;6.55;5.38;;;13.80;99.90;;;;;;5011288;28;20021;-73
2021/08/03 00:12:50;;;;;;;7.03;5.68;;;13.80;99.90;;;;;;5011241;28;20037;-73
2021/08/03 00:15:19;;;;;;;7.70;5.70;;;13.90;99.90;;;;;;5012282;28;20034;-72
2021/08/03 00:17:46;;;;;;;9.30;6.18;;;13.90;99.90;;;;;;5013000;28;20025;-73
2021/08/03 00:20:12;;;;;;;8.93;6.38;;;14.00;99.90;;;;;;5026011;23;20042;-73
2021/08/03 00:22:38;;;;;;;5.88;5.05;;;14.00;99.90;;;;;;5008127;28;20030;-72
2021/08/03 00:25:04;;;;;;;9.50;4.80;;;13.90;99.90;;;;;;5014461;28;20036;-71
2021/08/03 00:27:30;;;;;;;5.15;4.35;;;13.90;99.90;;;;;;5015036;28;20099;-72
2021/08/03 00:29:57;;;;;;;8.85;5.45;;;14.00;99.90;;;;;;5014525;28;20040;-72
2021/08/03 00:32:25;;;;;;;10.48;6.10;;;14.00;99.90;;;;;;5014674;28;20033;-72
2021/08/03 00:34:51;;;;;;;11.13;5.57;;;14.10;99.90;;;;;;5013822;28;20026;-72
2021/08/03 00:37:17;;;;;;;5.03;4.55;;;14.10;99.90;;;;;;5014765;28;20547;-72
2021/08/03 00:39:42;;;;;;;7.20;4.00;;;14.00;99.90;;;;;;5014526;28;20029;-72
2021/08/03 00:42:08;;;;;;;9.48;3.83;;;13.90;99.90;;;;;;5018195;28;20022;-72
2021/08/03 00:44:46;;;;;;;3.83;3.53;;;13.60;99.90;;;;;;5016309;28;20026;-72
2021/08/03 00:47:13;;;;;;;4.13;3.67;;;13.60;99.90;;;;;;5014781;28;20022;-71
2021/08/03 00:49:40;;;;;;;8.85;3.28;;;13.60;99.90;;;;;;5009115;28;20042;-71
2021/08/03 00:52:08;;;;;;;3.50;3.20;;;13.50;99.90;;;;;;4994711;28;20388;-71
2021/08/03 00:54:34;;;;;;;7.25;3.20;;;13.50;99.90;;;;;;4994096;28;20452;-72
2021/08/03 00:57:00;;;;;;;6.93;3.40;;;13.50;99.90;;;;;;4994569;28;20106;-72
2021/08/03 00:59:26;;;;;;;6.80;3.25;;;13.30;99.90;;;;;;4994504;28;20085;-72
2021/08/03 01:01:52;;;;;;;5.85;2.65;;;13.10;99.90;;;;;;4994714;28;20022;-72
2021/08/03 01:04:18;;;;;;;3.45;3.03;;;13.20;99.90;;;;;;4993867;28;20022;-72
2021/08/03 01:07:23;;;;;;;7.93;3.40;;;13.20;99.90;;;;;;4994602;28;20500;-71
2021/08/03 01:09:54;;;;;;;6.18;3.05;;;13.30;99.90;;;;;;4961316;28;20043;-72
2021/08/03 01:12:31;;;;;;;7.73;3.53;;;13.30;99.90;;;;;;4977052;28;20023;-72
2021/08/03 01:15:04;;;;;;;7.65;4.40;;;13.40;99.90;;;;;;4993669;28;20102;-71
2021/08/03 01:17:42;;;;;;;7.90;5.32;;;13.60;99.90;;;;;;4993864;28;20098;-72
2021/08/03 01:20:23;;;;;;;10.30;4.95;;;13.70;99.90;;;;;;4992661;28;20605;-72
2021/08/03 01:22:58;;;;;;;10.50;5.65;;;13.70;99.90;;;;;;4992468;28;20389;-72
2021/08/03 01:25:32;;;;;;;6.15;5.30;;;13.80;99.90;;;;;;4992837;28;20034;-72
2021/08/03 01:28:16;;;;;;;13.00;5.90;;;13.80;99.90;;;;;;4993548;28;20027;-73
2021/08/03 01:30:55;;;;;;;9.90;6.20;;;13.80;99.90;;;;;;4993635;28;20437;-73
2021/08/03 01:33:25;;;;;;;10.55;6.38;;;13.80;99.90;;;;;;4994040;28;20497;-72
2021/08/03 01:35:52;;;;;;;10.50;6.72;;;13.80;99.90;;;;;;4993137;28;20110;-71
2021/08/03 01:38:21;;;;;;;14.90;7.30;;;13.80;99.90;;;;;;4994075;28;20022;-73
2021/08/03 01:40:50;;;;;;;12.25;8.38;;;13.80;99.90;;;;;;4993553;28;20042;-72
2021/08/03 01:43:16;;;;;;;11.43;7.05;;;13.80;99.90;;;;;;4993710;28;20034;-73
2021/08/03 01:45:43;;;;;;;7.18;5.97;;;13.80;99.90;;;;;;4993114;28;20117;-72
2021/08/03 01:48:10;;;;;;;6.15;5.43;;;13.70;99.90;;;;;;4993776;28;20034;-72
2021/08/03 01:50:36;;;;;;;8.23;5.72;;;13.70;99.90;;;;;;4993296;28;20400;-72
2021/08/03 01:53:03;;;;;;;8.75;5.88;;;13.60;99.90;;;;;;4993402;28;20029;-72
2021/08/03 01:55:31;;;;;;;10.48;5.90;;;13.60;99.90;;;;;;4992930;28;20026;-71
2021/08/03 01:57:58;;;;;;;16.15;6.63;;;13.70;99.90;;;;;;4993651;28;20027;-72
2021/08/03 02:00:23;;;;;;;16.27;6.80;;;13.70;99.90;;;;;;4993411;28;20038;-73
2021/08/03 02:02:50;;;;;;;16.73;7.15;;;13.70;99.90;;;;;;4993367;28;20058;-72
2021/08/03 02:05:16;;;;;;;6.60;6.00;;;13.70;99.90;;;;;;4992445;28;20097;-72
2021/08/03 02:07:43;;;;;;;7.55;5.85;;;13.60;99.90;;;;;;4993320;28;20035;-72
2021/08/03 02:10:09;;;;;;;11.75;6.65;;;13.60;99.90;;;;;;4993184;28;20062;-72
2021/08/03 02:12:35;;;;;;;12.38;6.80;;;13.60;99.90;;;;;;4993267;28;20026;-72
2021/08/03 02:15:06;;;;;;;11.40;6.65;;;13.50;99.90;;;;;;4992868;28;20089;-72
2021/08/03 02:17:32;;;;;;;14.00;6.95;;;13.50;99.90;;;;;;4994004;28;20030;-72
2021/08/03 02:19:58;;;;;;;16.02;6.72;;;13.50;99.90;;;;;;4992641;28;20045;-72
2021/08/03 02:22:23;;;;;;;15.63;7.38;;;13.50;99.90;;;;;;4992992;28;20022;-72
2021/08/03 02:24:49;;;;;;;11.38;8.00;;;13.50;99.90;;;;;;4992566;28;20036;-72
2021/08/03 02:27:15;;;;;;;15.85;8.02;;;13.40;99.90;;;;;;4993263;28;20369;-72
2021/08/03 02:29:44;;;;;;;12.50;8.38;;;13.40;99.90;;;;;;4993047;28;20085;-71
2021/08/03 02:32:17;;;;;;;8.88;6.70;;;13.30;99.90;;;;;;4975564;28;20041;-71
2021/08/03 02:35:15;;;;;;;10.40;7.72;;;13.30;99.90;;;;;;4992187;28;20508;-72
2021/08/03 02:37:46;;;;;;;11.55;7.10;;;13.30;99.90;;;;;;4991634;28;20077;-71
2021/08/03 02:40:12;;;;;;;16.85;7.82;;;13.20;99.90;;;;;;4992826;28;20448;-71
2021/08/03 02:42:39;;;;;;;11.60;8.30;;;13.20;99.90;;;;;;4975917;28;20041;-72
2021/08/03 02:45:06;;;;;;;13.15;7.80;;;13.20;99.90;;;;;;4992334;28;20061;-73
2021/08/03 02:47:42;;;;;;;15.45;7.47;;;13.10;99.90;;;;;;4993130;28;20073;-72
2021/08/03 02:50:09;;;;;;;14.93;7.25;;;13.10;99.90;;;;;;4975075;28;20098;-72
2021/08/03 02:52:39;;;;;;;10.10;6.57;;;13.00;99.90;;;;;;4992406;28;20068;-72
2021/08/03 02:55:22;;;;;;;12.77;7.47;;;13.00;99.90;;;;;;4991611;28;20381;-72
2021/08/03 02:57:54;;;;;;;10.30;7.25;;;12.90;99.90;;;;;;4992641;28;20030;-72
2021/08/03 03:00:20;;;;;;;18.23;7.43;;;12.90;99.90;;;;;;4992593;28;20020;-72
2021/08/03 03:02:47;;;;;;;9.45;7.50;;;12.80;99.90;;;;;;4992903;28;20458;-72
2021/08/03 03:05:34;;;;;;;15.45;8.02;;;12.80;99.90;;;;;;4992058;28;20033;-72
2021/08/03 03:08:11;;;;;;;13.40;8.55;;;12.80;99.90;;;;;;4992703;28;20026;-72
2021/08/03 03:10:43;;;;;;;14.98;8.60;;;12.80;99.90;;;;;;4992698;28;20499;-72
2021/08/03 03:13:18;;;;;;;16.05;8.50;;;12.70;99.90;;;;;;4993118;28;20072;-72
2021/08/03 03:15:45;;;;;;;11.18;7.72;;;12.70;99.90;;;;;;4974894;28;20064;-72
2021/08/03 03:18:12;;;;;;;15.10;7.63;;;12.70;99.90;;;;;;4993055;28;20023;-72
2021/08/03 03:20:39;;;;;;;14.10;7.70;;;12.70;99.90;;;;;;4996822;28;20030;-72
2021/08/03 03:23:06;;;;;;;16.80;7.70;;;12.80;99.90;;;;;;4978830;28;20030;-71
2021/08/03 03:25:32;;;;;;;11.63;6.93;;;12.80;99.90;;;;;;4991813;28;20065;-72
2021/08/03 03:28:04;;;;;;;8.02;7.22;;;12.90;99.90;;;;;;4992401;28;20062;-71
2021/08/03 03:30:31;;;;;;;11.68;7.03;;;13.00;99.90;;;;;;4992410;28;20084;-72
2021/08/03 03:33:02;;;;;;;10.07;6.50;;;13.00;99.90;;;;;;4992395;28;20100;-72
2021/08/03 03:35:30;;;;;;;15.33;9.40;;;13.00;99.90;;;;;;4991633;28;20070;-72
2021/08/03 03:37:57;;;;;;;14.80;9.80;;;12.90;99.90;;;;;;4992343;28;20023;-71
2021/08/03 03:40:24;;;;;;;12.68;9.10;;;12.90;99.90;;;;;;4992135;28;20105;-72
2021/08/03 03:42:54;;;;;;;16.70;10.25;;;12.90;99.90;;;;;;4992299;28;20045;-71
2021/08/03 03:45:20;;;;;;;84.78;11.43;;;13.00;99.90;;;;;;4991790;28;20121;-71
2021/08/03 03:48:04;;;;;;;26.60;10.15;;;13.00;99.90;;;;;;4995108;28;20105;-72
2021/08/03 03:50:44;;;;;;;12.75;9.23;;;13.10;99.90;;;;;;5016698;28;20017;-73
2021/08/03 03:53:13;;;;;;;26.48;9.13;;;13.10;99.90;;;;;;5019923;28;20041;-72
2021/08/03 03:55:51;;;;;;;18.98;9.90;;;13.10;99.90;;;;;;4997543;28;20018;-72
2021/08/03 03:58:18;;;;;;;10.43;6.90;;;13.10;99.90;;;;;;5009891;28;20041;-72
2021/08/03 04:00:45;;;;;;;8.52;5.10;;;13.00;99.90;;;;;;4995848;28;20504;-72
2021/08/03 04:03:15;;;;;;;11.93;5.40;;;12.70;99.90;;;;;;4996284;28;20109;-72
2021/08/03 04:05:42;;;;;;;5.28;4.55;;;12.60;99.90;;;;;;4995021;28;20399;-72
2021/08/03 04:08:09;;;;;;;10.75;5.32;;;12.50;99.90;;;;;;4996015;28;20054;-72
2021/08/03 04:10:36;;;;;;;13.20;6.00;;;12.50;99.90;;;;;;4999816;28;20022;-72
2021/08/03 04:13:02;;;;;;;11.85;5.95;;;12.60;99.90;;;;;;5006713;28;20023;-73
2021/08/03 04:15:28;;;;;;;6.88;5.95;;;12.60;99.90;;;;;;4993467;28;20037;-72
2021/08/03 04:17:54;;;;;;;9.63;5.47;;;12.80;99.90;;;;;;4995203;28;20117;-71
2021/08/03 04:20:21;;;;;;;8.88;6.30;;;12.90;99.90;;;;;;4984266;28;20195;-72
2021/08/03 04:22:47;;;;;;;13.18;6.88;;;13.00;99.90;;;;;;4976069;28;20043;-73
2021/08/03 04:25:12;;;;;;;11.50;6.05;;;13.10;99.90;;;;;;4975492;28;20045;-73
2021/08/03 04:27:38;;;;;;;8.07;5.35;;;13.10;99.90;;;;;;4974402;28;20043;-72
2021/08/03 04:30:07;;;;;;;6.55;4.72;;;12.90;99.90;;;;;;4957123;28;20118;-72
2021/08/03 04:32:33;;;;;;;7.22;5.30;;;12.80;99.90;;;;;;4976042;28;20076;-72
2021/08/03 04:34:58;;;;;;;11.77;6.00;;;12.90;99.90;;;;;;4993895;28;20014;-71
2021/08/03 04:37:24;;;;;;;9.10;5.80;;;13.10;99.90;;;;;;4995035;28;20081;-72
2021/08/03 04:39:50;;;;;;;8.68;5.72;;;13.20;99.90;;;;;;4995169;28;20022;-73
2021/08/03 04:42:15;;;;;;;7.25;5.80;;;13.10;99.90;;;;;;4999878;28;20027;-72
2021/08/03 04:44:41;;;;;;;7.10;6.30;;;13.10;99.90;;;;;;4999412;28;20026;-72
2021/08/03 04:47:07;;;;;;;6.53;5.30;;;13.00;99.90;;;;;;5001421;28;20121;-71
2021/08/03 04:49:33;;;;;;;6.25;4.57;;;13.00;99.90;;;;;;5000491;28;20065;-72
2021/08/03 04:51:59;;;;;;;4.68;4.03;;;12.90;99.90;;;;;;4998297;28;20058;-72
2021/08/03 04:54:25;;;;;;;8.23;4.78;;;12.90;99.90;;;;;;4993920;28;20029;-72
2021/08/03 04:56:51;;;;;;;8.40;5.03;;;13.00;99.90;;;;;;4994772;28;20026;-72
2021/08/03 04:59:17;;;;;;;6.15;5.55;;;13.10;99.90;;;;;;4994669;28;20113;-72
2021/08/03 05:01:43;;;;;;;5.95;4.72;;;13.10;99.90;;;;;;4993955;28;20030;-73
2021/08/03 05:04:08;;;;;;;6.88;4.50;;;13.00;99.90;;;;;;4976934;28;20042;-73
2021/08/03 05:06:34;;;;;;;4.43;3.92;;;13.00;99.90;;;;;;4993591;28;20038;-71
2021/08/03 05:08:59;;;;;;;5.60;5.10;;;12.90;99.90;;;;;;4994076;28;20033;-71
2021/08/03 05:11:25;;;;;;;5.75;4.10;;;13.30;99.90;;;;;;4994382;28;20038;-71
2021/08/03 05:13:51;;;;;;;4.20;3.80;;;13.30;99.90;;;;;;4993879;28;20030;-71
2021/08/03 05:16:16;;;;;;;5.45;4.13;;;13.40;99.90;;;;;;4993297;28;20022;-71
2021/08/03 05:18:42;;;;;;;4.88;4.13;;;13.50;99.90;;;;;;4994193;28;20033;-71
2021/08/03 05:21:08;;;;;;;3.70;3.25;;;13.60;99.90;;;;;;4993611;28;20030;-71
2021/08/03 05:23:33;;;;;;;3.28;2.97;;;13.60;99.90;;;;;;4993556;28;20030;-73
2021/08/03 05:25:59;;;;;;;6.47;2.88;;;13.60;99.90;;;;;;4992999;28;20569;-71
2021/08/03 05:28:24;;;;;;;3.72;3.47;;;13.50;99.90;;;;;;4994094;28;20788;-71
2021/08/03 05:30:50;;;;;;;4.88;3.42;;;13.70;99.90;;;;;;4994159;28;20026;-71
2021/08/03 05:33:16;;;;;;;5.70;3.42;;;13.70;99.90;;;;;;4993957;28;20026;-70
2021/08/03 05:35:42;;;;;;;4.72;3.10;;;13.60;99.90;;;;;;4992797;28;20362;-69
2021/08/03 05:38:09;;;;;;;7.40;3.15;;;13.30;99.90;;;;;;4993189;28;20088;-69
2021/08/03 05:40:35;;;;;;;5.97;2.85;;;13.40;99.90;;;;;;4993620;28;20023;-72
2021/08/03 05:43:01;;;;;;;4.88;2.80;;;13.40;99.90;;;;;;4993732;28;20053;-69
2021/08/03 05:45:27;;;;;;;5.00;2.63;;;13.40;99.90;;;;;;4992767;28;20088;-71
2021/08/03 05:47:53;;;;;;;4.80;2.92;;;13.40;99.90;;;;;;4995989;28;20033;-71
2021/08/03 05:50:19;;;;;;;3.28;2.60;;;13.10;99.90;;;;;;4999724;28;20038;-71
2021/08/03 05:52:44;;;;;;;3.85;2.92;;;13.00;99.90;;;;;;4993299;28;20034;-72
2021/08/03 05:55:10;;;;;;;7.40;3.10;;;12.80;99.90;;;;;;4989845;28;20384;-70
2021/08/03 05:57:36;;;;;;;3.55;2.65;;;12.70;99.90;;;;;;4989363;28;20081;-70
2021/08/03 06:00:06;;;;;;;4.10;2.83;;;12.80;99.90;;;;;;4992631;28;20529;-69
2021/08/03 06:02:32;;;;;;;2.80;2.53;;;12.90;99.90;;;;;;4975265;28;20030;-71
2021/08/03 06:04:58;;;;;;;4.05;2.92;;;13.00;99.90;;;;;;4991968;28;20031;-71
2021/08/03 06:07:27;;;;;;;3.72;2.75;;;13.30;99.90;;;;;;4989991;28;20576;-70
2021/08/03 06:09:57;;;;;;;10.40;2.70;;;13.40;99.90;;;;;;4992942;28;20028;-70
2021/08/03 06:12:27;;;;;;;2.60;2.40;;;13.50;99.90;;;;;;4992478;28;20085;-70
2021/08/03 06:14:55;;;;;;;4.28;2.50;;;13.60;99.90;;;;;;4992577;28;20437;-71
2021/08/03 06:17:36;;;;;;;4.90;1.95;;;13.80;99.90;;;;;;4993329;28;20033;-71
2021/08/03 06:20:04;;;;;;;8.38;2.00;;;13.80;99.90;;;;;;4992832;28;20063;-71
2021/08/03 06:22:34;;;;;;;3.15;2.20;;;13.90;99.90;;;;;;4993457;28;20113;-70
2021/08/03 06:25:00;;;;;;;4.07;1.85;;;14.00;99.90;;;;;;4992442;28;20429;-70
2021/08/03 06:27:29;;;;;;;4.60;2.15;;;13.80;99.90;;;;;;4990089;28;20041;-69
2021/08/03 06:29:55;;;;;;;4.25;2.15;;;13.90;99.90;;;;;;4992113;28;20424;-69
2021/08/03 06:32:24;;;;;;;8.23;2.17;;;14.40;99.90;;;;;;4991437;28;20032;-69
2021/08/03 06:34:49;;;;;;;3.60;1.90;;;14.50;99.90;;;;;;4991850;28;20415;-69
2021/08/03 06:37:15;;;;;;;3.65;1.70;;;14.60;99.90;;;;;;4992381;28;20026;-70
2021/08/03 06:39:41;;;;;;;7.65;1.95;;;14.80;99.90;;;;;;4992561;28;20515;-70
2021/08/03 06:42:25;;;;;;;3.47;2.13;;;14.70;99.90;;;;;;4992791;28;20027;-69
2021/08/03 06:45:06;;;;;;;4.93;2.08;;;14.50;99.90;;;;;;4992042;28;20019;-70
2021/08/03 06:47:43;;;;;;;2.35;2.08;;;14.40;99.90;;;;;;4992464;28;20034;-70
2021/08/03 06:50:10;;;;;;;3.42;1.80;;;14.30;99.90;;;;;;4992311;28;20018;-71
2021/08/03 06:52:37;;;;;;;2.10;1.90;;;14.10;99.90;;;;;;4974151;28;20569;-71
2021/08/03 06:55:05;;;;;;;4.65;2.20;;;14.20;99.90;;;;;;4991535;28;20041;-71
2021/08/03 06:57:34;;;;;;;2.30;2.00;;;14.20;99.90;;;;;;4992704;28;20030;-71
2021/08/03 07:00:05;;;;;;;4.47;2.17;;;14.30;99.90;;;;;;4992454;28;20516;-71
2021/08/03 07:02:35;;;;;;;5.00;2.05;;;14.40;99.90;;;;;;4992531;28;20485;-69
2021/08/03 07:05:08;;;;;;;5.47;2.50;;;14.90;99.90;;;;;;4992357;28;20489;-70
2021/08/03 07:07:35;;;;;;;6.78;1.90;;;15.40;99.90;;;;;;4992165;28;20185;-69
2021/08/03 07:10:03;;;;;;;2.20;1.63;;;15.40;99.90;;;;;;4992455;28;20424;-69
2021/08/03 07:12:29;;;;;;;4.35;1.70;;;15.60;99.90;;;;;;4992344;28;20473;-70
2021/08/03 07:14:56;;;;;;;9.75;1.45;;;15.80;99.90;;;;;;4992085;28;20033;-70
2021/08/03 07:17:25;;;;;;;3.83;1.85;;;15.80;99.90;;;;;;4992860;28;20037;-70
2021/08/03 07:19:52;;;;;;;3.83;1.70;;;16.00;99.90;;;;;;4992081;28;20034;-69
2021/08/03 07:22:18;;;;;;;2.72;1.60;;;16.40;99.90;;;;;;4991953;28;20022;-69
2021/08/03 07:24:46;;;;;;;3.40;1.70;;;16.50;99.90;;;;;;4991941;28;20029;-70
2021/08/03 07:27:12;;;;;;;5.18;1.77;;;16.30;99.90;;;;;;4974680;28;20026;-69
2021/08/03 07:29:38;;;;;;;5.97;1.60;;;16.60;99.90;;;;;;4992023;28;20026;-71
2021/08/03 07:32:04;;;;;;;6.45;1.77;;;16.60;99.90;;;;;;4992004;28;20065;-73
2021/08/03 07:34:30;;;;;;;3.70;1.23;;;16.50;99.90;;;;;;4991747;28;20453;-71
2021/08/03 07:36:55;;;;;;;3.97;1.50;;;16.60;99.90;;;;;;4991416;28;20019;-71
2021/08/03 07:39:21;;;;;;;4.85;1.85;;;16.10;99.90;;;;;;4991792;28;20025;-70
2021/08/03 07:41:47;;;;;;;5.18;1.38;;;16.40;99.90;;;;;;4992201;28;20041;-70
2021/08/03 07:44:13;;;;;;;4.30;1.70;;;16.60;99.90;;;;;;4992154;28;20030;-70
2021/08/03 07:46:39;;;;;;;3.40;1.48;;;16.80;99.90;;;;;;4991101;28;20531;-70
2021/08/03 07:49:07;;;;;;;7.93;1.45;;;16.70;99.90;;;;;;4991913;28;20022;-69
2021/08/03 07:51:33;;;;;;;2.95;1.35;;;16.70;99.90;;;;;;4991753;28;20384;-71
2021/08/03 07:53:59;;;;;;;5.13;1.95;;;16.40;99.90;;;;;;4992286;28;20049;-69
2021/08/03 07:56:25;;;;;;;4.47;1.52;;;16.30;99.90;;;;;;4991513;28;20480;-70
2021/08/03 07:58:50;;;;;;;5.38;1.60;;;16.70;99.90;;;;;;4992083;28;20073;-69
2021/08/03 08:01:18;;;;;;;6.38;1.60;;;17.30;99.90;;;;;;4992152;28;20546;-69
2021/08/03 08:03:45;;;;;;;3.80;1.52;;;17.30;99.90;;;;;;4992243;28;20042;-69
2021/08/03 08:06:11;;;;;;;2.20;1.25;;;17.10;99.90;;;;;;4991251;28;20109;-70
2021/08/03 08:08:36;;;;;;;4.43;1.75;;;17.00;99.90;;;;;;4992451;28;20073;-69
2021/08/03 08:11:02;;;;;;;1.58;1.40;;;17.30;99.90;;;;;;4992194;28;20034;-71
2021/08/03 08:13:27;;;;;;;6.40;1.67;;;17.50;99.90;;;;;;4992189;28;20026;-70
2021/08/03 08:15:54;;;;;;;0.98;0.98;;;17.50;99.90;;;;;;4997141;28;20041;-69
2021/08/03 08:18:19;;;;;;;3.67;1.40;;;17.70;99.90;;;;;;5002385;28;20030;-70
2021/08/03 08:20:45;;;;;;;1.42;1.20;;;17.90;99.90;;;;;;4992350;28;20034;-69
2021/08/03 08:23:13;;;;;;;6.72;1.60;;;18.20;99.90;;;;;;4992237;28;20453;-69
2021/08/03 08:25:38;;;;;;;1.45;1.30;;;18.20;99.90;;;;;;4991053;28;20037;-69
2021/08/03 08:28:05;;;;;;;2.55;1.27;;;18.10;99.90;;;;;;4991081;28;20022;-70
2021/08/03 08:30:31;;;;;;;1.98;1.30;;;18.40;99.90;;;;;;4991600;28;20040;-70
2021/08/03 08:32:57;;;;;;;1.55;1.08;;;18.70;99.90;;;;;;4992008;28;20489;-70
2021/08/03 08:35:23;;;;;;;3.55;1.33;;;19.00;99.90;;;;;;4991925;28;20030;-71
2021/08/03 08:37:49;;;;;;;3.08;1.20;;;18.60;99.90;;;;;;4977634;28;20105;-69
2021/08/03 08:40:18;;;;;;;3.20;1.25;;;18.20;99.90;;;;;;4995001;28;20022;-69
2021/08/03 08:42:46;;;;;;;2.95;1.50;;;18.60;99.90;;;;;;4995143;28;20105;-69
2021/08/03 08:45:13;;;;;;;2.45;1.70;;;18.60;99.90;;;;;;4976615;28;20026;-69
2021/08/03 08:47:43;;;;;;;1.65;1.23;;;19.20;99.90;;;;;;4994905;28;20061;-69
2021/08/03 08:50:10;;;;;;;6.50;1.38;;;19.40;99.90;;;;;;4994809;28;20084;-70
2021/08/03 08:52:38;;;;;;;4.35;1.10;;;19.40;99.90;;;;;;4994691;28;20034;-68
2021/08/03 08:55:06;;;;;;;3.47;1.00;;;19.30;99.90;;;;;;4994367;28;20030;-68
2021/08/03 08:57:32;;;;;;;3.17;1.38;;;19.00;99.90;;;;;;4976957;28;20023;-69
2021/08/03 08:59:57;;;;;;;6.20;1.35;;;19.00;99.90;;;;;;4994313;28;20026;-69
2021/08/03 09:02:53;;;;;;;1.58;1.15;;;18.70;99.90;;;;;;4994358;28;20142;-69
2021/08/03 09:05:31;;;;;;;2.22;1.33;;;18.10;99.90;;;;;;4976338;28;20029;-69
2021/08/03 09:07:59;;;;;;;4.22;1.40;;;18.20;99.90;;;;;;4994327;28;20106;-68
2021/08/03 09:10:41;;;;;;;3.75;1.45;;;18.40;99.90;;;;;;4994169;28;20026;-69
2021/08/03 09:13:18;;;;;;;7.15;1.50;;;18.70;99.90;;;;;;4994490;28;20477;-70
2021/08/03 09:15:46;;;;;;;3.88;1.58;;;18.90;99.90;;;;;;4993567;28;20040;-69
2021/08/03 09:18:28;;;;;;;3.15;1.42;;;18.80;99.90;;;;;;4994310;28;20477;-69
2021/08/03 09:20:54;;;;;;;1.85;1.52;;;18.90;99.90;;;;;;4993824;28;20045;-70
2021/08/03 09:23:20;;;;;;;5.03;1.30;;;19.00;99.90;;;;;;4994395;28;20030;-70
2021/08/03 09:25:57;;;;;;;1.95;1.80;;;19.00;99.90;;;;;;4993536;28;20026;-69
2021/08/03 09:28:23;;;;;;;2.92;1.95;;;18.70;99.90;;;;;;4994335;28;20033;-69
2021/08/03 09:30:49;;;;;;;3.00;1.63;;;18.60;99.90;;;;;;4993975;28;20033;-69
2021/08/03 09:33:30;;;;;;;2.38;1.67;;;18.60;99.90;;;;;;4993964;28;20038;-69
2021/08/03 09:35:55;;;;;;;3.42;1.40;;;18.60;99.90;;;;;;4993157;28;20031;-69
2021/08/03 09:38:22;;;;;;;3.22;1.65;;;18.70;99.90;;;;;;4993999;28;20027;-69
2021/08/03 09:40:50;;;;;;;3.10;1.75;;;18.80;99.90;;;;;;4993688;28;20034;-69
2021/08/03 09:43:24;;;;;;;6.80;1.52;;;18.80;99.90;;;;;;4994086;28;20026;-69
2021/08/03 09:45:50;;;;;;;3.97;1.80;;;18.70;99.90;;;;;;4993013;28;20038;-69
2021/08/03 09:48:20;;;;;;;2.60;1.88;;;18.60;99.90;;;;;;4993877;28;20030;-69
2021/08/03 09:51:12;;;;;;;2.08;1.77;;;18.70;99.90;;;;;;4993543;28;20033;-69
2021/08/03 09:53:58;;;;;;;3.28;1.70;;;18.40;99.90;;;;;;4993232;28;20041;-69
2021/08/03 09:56:26;;;;;;;2.08;1.40;;;18.00;99.90;;;;;;4992916;28;20202;-69
2021/08/03 09:59:01;;;;;;;2.28;1.50;;;18.00;99.90;;;;;;4993690;28;20097;-68
2021/08/03 10:01:29;;;;;;;5.13;1.45;;;17.90;99.90;;;;;;4993750;28;20097;-68
2021/08/03 10:04:00;;;;;;;4.35;1.40;;;18.00;99.90;;;;;;4993518;28;20033;-68
2021/08/03 10:06:26;;;;;;;2.13;1.50;;;18.00;99.90;;;;;;4992585;28;20034;-69
2021/08/03 10:08:53;;;;;;;1.65;1.20;;;18.00;99.90;;;;;;4993332;28;20062;-70
2021/08/03 10:11:20;;;;;;;3.33;1.70;;;18.00;99.90;;;;;;4993268;28;20446;-69
2021/08/03 10:13:47;;;;;;;2.42;1.40;;;17.90;99.90;;;;;;4993069;28;20101;-69
2021/08/03 10:16:14;;;;;;;3.92;1.30;;;18.00;99.90;;;;;;4992526;28;20432;-70
2021/08/03 10:18:55;;;;;;;1.30;1.20;;;18.10;99.90;;;;;;4993201;28;20031;-70
2021/08/03 10:21:34;;;;;;;5.15;1.92;;;18.20;99.90;;;;;;4992770;28;20493;-70
2021/08/03 10:24:10;;;;;;;1.42;1.33;;;18.20;99.90;;;;;;4993336;28;20484;-70
2021/08/03 10:26:36;;;;;;;3.28;1.65;;;18.40;99.90;;;;;;4992822;28;20034;-70
2021/08/03 10:29:24;;;;;;;1.45;1.35;;;18.90;99.90;;;;;;4993186;28;20107;-69
2021/08/03 10:31:51;;;;;;;5.97;1.85;;;19.10;99.90;;;;;;4990856;28;20023;-70
2021/08/03 10:34:41;;;;;;;1.52;1.35;;;19.50;99.90;;;;;;4976688;28;20042;-69
2021/08/03 10:37:07;;;;;;;2.55;1.52;;;19.30;99.90;;;;;;4995009;28;20388;-69
2021/08/03 10:39:59;;;;;;;3.88;1.75;;;18.90;99.90;;;;;;4994224;28;20153;-69
2021/08/03 10:42:26;;;;;;;3.40;1.47;;;19.60;99.90;;;;;;4990428;28;20404;-69
2021/08/03 10:44:53;;;;;;;2.90;1.20;;;19.50;99.90;;;;;;4994105;28;20042;-69
2021/08/03 10:47:30;;;;;;;2.92;1.38;;;19.40;99.90;;;;;;4994783;28;20030;-69
2021/08/03 10:49:58;;;;;;;1.50;0.98;;;18.90;99.90;;;;;;4996509;28;20093;-70
2021/08/03 10:52:51;;;;;;;2.10;1.10;;;18.90;99.90;;;;;;4994358;28;20033;-70
2021/08/03 10:55:43;;;;;;;1.48;1.10;;;18.80;99.90;;;;;;4982516;28;20082;-70
2021/08/03 10:58:09;;;;;;;1.30;1.20;;;18.40;99.90;;;;;;4973724;28;20022;-71
2021/08/03 11:00:54;;;;;;;3.58;1.30;;;18.70;99.90;;;;;;4973724;28;20103;-71
2021/08/03 11:03:43;;;;;;;1.00;1.00;;;18.70;99.90;;;;;;4992652;28;20057;-70
2021/08/03 11:06:09;;;;;;;0.93;0.93;;;18.70;99.90;;;;;;4982809;28;20034;-71
2021/08/03 11:08:42;;;;;;;1.38;1.17;;;18.60;99.90;;;;;;4993330;28;20038;-70
2021/08/03 11:11:09;;;;;;;2.03;1.20;;;18.80;99.90;;;;;;4993229;28;20026;-70
2021/08/03 11:13:48;;;;;;;1.27;1.20;;;19.00;99.90;;;;;;4992754;28;20378;-70
2021/08/03 11:16:19;;;;;;;2.08;1.10;;;18.90;99.90;;;;;;4992525;28;20058;-71
2021/08/03 11:18:47;;;;;;;1.50;1.40;;;18.60;99.90;;;;;;4989253;28;20625;-70
2021/08/03 11:21:15;;;;;;;1.20;1.10;;;18.60;99.90;;;;;;4986214;28;20044;-71
2021/08/03 11:23:59;;;;;;;2.00;1.42;;;18.90;99.90;;;;;;4992956;28;20105;-71
2021/08/03 11:26:27;;;;;;;1.33;1.23;;;18.90;99.90;;;;;;4992565;28;20053;-71
2021/08/03 11:29:00;;;;;;;1.45;1.35;;;19.10;99.90;;;;;;4994110;28;20102;-71
2021/08/03 11:31:50;;;;;;;1.15;0.98;;;19.00;99.90;;;;;;4993729;28;20114;-70
2021/08/03 11:34:34;;;;;;;1.85;1.58;;;18.80;99.90;;;;;;4975302;28;20077;-72
2021/08/03 11:37:16;;;;;;;1.40;1.30;;;18.60;99.90;;;;;;4993076;28;20543;-70
2021/08/03 11:39:44;;;;;;;1.48;1.35;;;18.50;99.90;;;;;;4994387;28;20543;-69
2021/08/03 11:42:11;;;;;;;3.47;1.63;;;18.50;99.90;;;;;;4989992;28;20030;-68
2021/08/03 11:44:39;;;;;;;1.52;1.42;;;18.30;99.90;;;;;;4978760;28;20039;-69
2021/08/03 11:47:08;;;;;;;1.70;1.60;;;18.20;99.90;;;;;;4987226;28;20037;-68
2021/08/03 11:49:43;;;;;;;2.28;1.40;;;18.30;99.90;;;;;;4984758;28;20030;-70
2021/08/03 11:52:13;;;;;;;1.67;1.58;;;18.30;99.90;;;;;;4992352;28;20098;-69
2021/08/03 11:54:41;;;;;;;2.65;1.70;;;18.10;99.90;;;;;;4988922;28;20026;-70
2021/08/03 11:57:23;;;;;;;2.42;1.52;;;18.10;99.90;;;;;;4975147;28;20027;-71
2021/08/03 11:59:58;;;;;;;1.33;1.30;;;18.00;99.90;;;;;;4993591;28;20029;-71
2021/08/03 12:02:24;;;;;;;3.15;1.77;;;17.90;99.90;;;;;;5001972;28;20026;-71
2021/08/03 12:05:13;;;;;;;2.78;1.40;;;18.10;99.90;;;;;;5007621;28;20034;-71
2021/08/03 12:07:44;;;;;;;1.40;1.30;;;18.10;99.90;;;;;;4979983;28;20038;-72
2021/08/03 12:10:10;;;;;;;2.93;1.43;;;18.40;99.90;;;;;;4993396;28;20026;-70
2021/08/03 12:12:41;;;;;;;1.27;1.10;;;18.50;99.90;;;;;;4993355;28;20776;-69
2021/08/03 12:15:09;;;;;;;1.58;1.20;;;18.30;99.90;;;;;;4967821;28;20026;-71
2021/08/03 12:17:36;;;;;;;1.20;1.10;;;17.90;99.90;;;;;;4978860;28;20026;-72
2021/08/03 12:20:20;;;;;;;0.90;0.90;;;17.80;99.90;;;;;;4995849;28;20030;-70
2021/08/03 12:22:46;;;;;;;3.90;0.85;;;18.10;99.90;;;;;;4995921;28;20038;-70
2021/08/03 12:25:12;;;;;;;3.17;1.30;;;18.10;99.90;;;;;;4985296;23;20157;-70
2021/08/03 12:27:40;;;;;;;1.10;1.02;;;17.60;99.90;;;;;;4972703;28;20680;-71
2021/08/03 12:30:07;;;;;;;4.35;1.10;;;17.60;99.90;;;;;;4976192;28;20037;-70
2021/08/03 12:32:41;;;;;;;2.60;1.20;;;17.80;99.90;;;;;;4975407;28;20027;-70
2021/08/03 12:35:12;;;;;;;2.85;1.25;;;18.00;99.90;;;;;;4974673;28;20085;-70
2021/08/03 12:37:38;;;;;;;2.03;1.23;;;18.20;99.90;;;;;;4975159;28;20026;-71
2021/08/03 12:40:32;;;;;;;2.42;1.20;;;18.30;99.90;;;;;;4976110;28;20026;-70
2021/08/03 12:42:58;;;;;;;2.25;1.13;;;17.80;99.90;;;;;;4975172;28;20093;-72
2021/08/03 12:45:25;;;;;;;2.38;1.17;;;17.90;99.90;;;;;;4974623;28;20035;-72
2021/08/03 12:47:56;;;;;;;2.08;1.25;;;18.10;99.90;;;;;;4975236;28;20034;-69
2021/08/03 12:50:23;;;;;;;2.17;1.10;;;18.80;99.90;;;;;;4973815;28;20518;-70
2021/08/03 12:52:50;;;;;;;3.42;1.10;;;18.50;99.90;;;;;;4975392;28;20031;-70
2021/08/03 12:56:16;;;;;;;1.35;1.10;;;18.80;99.90;;;;;;4973849;28;20548;-71
2021/08/03 12:58:42;;;;;;;2.47;1.10;;;18.80;99.90;;;;;;4970312;28;20039;-71